sensor_id;sensor_type;location;lat;lon;timestamp;P1;durP1;ratioP1;P2;durP2;ratioP2
24715;SDS011;12822;50.124;8.678;2023-10-19T00:02:06;22.67;;;15.35;;
24715;SDS011;12822;50.124;8.678;2023-10-19T00:04:32;18.42;;;13.88;;
24715;SDS011;12822;50.124;8.678;2023-10-19T00:07:01;20.42;;;14.15;;
24715;SDS011;12822;50.124;8.678;2023-10-19T00:09:29;22.80;;;14.48;;
24715;SDS011;12822;50.124;8.678;2023-10-19T00:12:01;21.35;;;14.75;;
24715;SDS011;12822;50.124;8.678;2023-10-19T00:14:28;21.02;;;15.00;;
24715;SDS011;12822;50.124;8.678;2023-10-19T00:16:54;25.30;;;15.15;;
24715;SDS011;12822;50.124;8.678;2023-10-19T00:19:26;23.50;;;15.55;;
24715;SDS011;12822;50.124;8.678;2023-10-19T00:21:55;22.83;;;14.88;;
24715;SDS011;12822;50.124;8.678;2023-10-19T00:24:27;18.40;;;14.23;;
24715;SDS011;12822;50.124;8.678;2023-10-19T00:26:56;20.42;;;15.98;;
24715;SDS011;12822;50.124;8.678;2023-10-19T00:29:30;19.52;;;14.27;;
24715;SDS011;12822;50.124;8.678;2023-10-19T00:31:59;20.92;;;15.25;;
24715;SDS011;12822;50.124;8.678;2023-10-19T00:34:26;20.70;;;14.05;;
24715;SDS011;12822;50.124;8.678;2023-10-19T00:36:54;21.13;;;14.70;;
24715;SDS011;12822;50.124;8.678;2023-10-19T00:39:21;18.00;;;13.80;;
24715;SDS011;12822;50.124;8.678;2023-10-19T00:41:48;20.15;;;14.88;;
24715;SDS011;12822;50.124;8.678;2023-10-19T00:44:15;19.35;;;14.27;;
24715;SDS011;12822;50.124;8.678;2023-10-19T00:46:47;17.20;;;13.80;;
24715;SDS011;12822;50.124;8.678;2023-10-19T00:49:20;20.45;;;15.18;;
24715;SDS011;12822;50.124;8.678;2023-10-19T00:51:49;18.75;;;14.40;;
24715;SDS011;12822;50.124;8.678;2023-10-19T00:56:58;20.38;;;14.15;;
24715;SDS011;12822;50.124;8.678;2023-10-19T00:59:29;23.27;;;15.25;;
24715;SDS011;12822;50.124;8.678;2023-10-19T01:02:00;19.70;;;14.73;;
24715;SDS011;12822;50.124;8.678;2023-10-19T01:04:48;22.98;;;14.88;;
24715;SDS011;12822;50.124;8.678;2023-10-19T01:07:26;20.08;;;15.38;;
24715;SDS011;12822;50.124;8.678;2023-10-19T01:09:58;19.05;;;14.77;;
24715;SDS011;12822;50.124;8.678;2023-10-19T01:12:25;19.60;;;15.10;;
24715;SDS011;12822;50.124;8.678;2023-10-19T01:17:42;20.73;;;14.98;;
24715;SDS011;12822;50.124;8.678;2023-10-19T01:20:15;20.48;;;15.18;;
24715;SDS011;12822;50.124;8.678;2023-10-19T01:25:18;21.13;;;15.52;;
24715;SDS011;12822;50.124;8.678;2023-10-19T01:27:49;19.80;;;14.63;;
24715;SDS011;12822;50.124;8.678;2023-10-19T01:30:21;20.45;;;15.55;;
24715;SDS011;12822;50.124;8.678;2023-10-19T01:32:47;24.23;;;16.65;;
24715;SDS011;12822;50.124;8.678;2023-10-19T01:35:13;21.42;;;15.32;;
24715;SDS011;12822;50.124;8.678;2023-10-19T01:37:39;22.70;;;14.93;;
24715;SDS011;12822;50.124;8.678;2023-10-19T01:40:06;22.45;;;15.48;;
24715;SDS011;12822;50.124;8.678;2023-10-19T01:42:33;23.65;;;14.93;;
24715;SDS011;12822;50.124;8.678;2023-10-19T01:44:59;20.13;;;14.82;;
24715;SDS011;12822;50.124;8.678;2023-10-19T01:47:25;22.65;;;14.52;;
24715;SDS011;12822;50.124;8.678;2023-10-19T01:49:53;18.40;;;14.38;;
24715;SDS011;12822;50.124;8.678;2023-10-19T01:52:19;21.05;;;15.70;;
24715;SDS011;12822;50.124;8.678;2023-10-19T01:54:45;20.98;;;14.55;;
24715;SDS011;12822;50.124;8.678;2023-10-19T01:57:11;23.10;;;15.60;;
24715;SDS011;12822;50.124;8.678;2023-10-19T01:59:39;21.90;;;14.63;;
24715;SDS011;12822;50.124;8.678;2023-10-19T02:02:09;21.33;;;15.05;;
24715;SDS011;12822;50.124;8.678;2023-10-19T02:04:37;18.88;;;14.45;;
24715;SDS011;12822;50.124;8.678;2023-10-19T02:07:05;19.50;;;14.13;;
24715;SDS011;12822;50.124;8.678;2023-10-19T02:09:37;18.17;;;13.38;;
24715;SDS011;12822;50.124;8.678;2023-10-19T02:12:04;20.35;;;14.82;;
24715;SDS011;12822;50.124;8.678;2023-10-19T02:14:32;18.63;;;12.80;;
24715;SDS011;12822;50.124;8.678;2023-10-19T02:16:59;21.30;;;14.80;;
24715;SDS011;12822;50.124;8.678;2023-10-19T02:19:27;17.58;;;14.02;;
24715;SDS011;12822;50.124;8.678;2023-10-19T02:21:54;19.00;;;13.85;;
24715;SDS011;12822;50.124;8.678;2023-10-19T02:24:23;15.90;;;12.52;;
24715;SDS011;12822;50.124;8.678;2023-10-19T02:26:52;20.45;;;13.82;;
24715;SDS011;12822;50.124;8.678;2023-10-19T02:29:18;19.60;;;13.10;;
24715;SDS011;12822;50.124;8.678;2023-10-19T02:31:44;17.25;;;13.18;;
24715;SDS011;12822;50.124;8.678;2023-10-19T02:34:12;17.65;;;13.55;;
24715;SDS011;12822;50.124;8.678;2023-10-19T02:36:40;20.45;;;12.85;;
24715;SDS011;12822;50.124;8.678;2023-10-19T02:39:10;17.98;;;14.27;;
24715;SDS011;12822;50.124;8.678;2023-10-19T02:41:40;18.40;;;13.57;;
24715;SDS011;12822;50.124;8.678;2023-10-19T02:44:13;19.48;;;14.30;;
24715;SDS011;12822;50.124;8.678;2023-10-19T02:46:39;21.08;;;14.18;;
24715;SDS011;12822;50.124;8.678;2023-10-19T02:49:07;19.90;;;14.88;;
24715;SDS011;12822;50.124;8.678;2023-10-19T02:51:43;21.85;;;14.52;;
24715;SDS011;12822;50.124;8.678;2023-10-19T02:54:13;19.80;;;14.20;;
24715;SDS011;12822;50.124;8.678;2023-10-19T02:56:48;19.08;;;14.02;;
24715;SDS011;12822;50.124;8.678;2023-10-19T02:59:18;20.88;;;13.55;;
24715;SDS011;12822;50.124;8.678;2023-10-19T03:01:47;21.63;;;13.68;;
24715;SDS011;12822;50.124;8.678;2023-10-19T03:04:16;22.73;;;14.02;;
24715;SDS011;12822;50.124;8.678;2023-10-19T03:06:42;15.68;;;12.95;;
24715;SDS011;12822;50.124;8.678;2023-10-19T03:09:09;17.33;;;14.02;;
24715;SDS011;12822;50.124;8.678;2023-10-19T03:11:41;19.23;;;13.20;;
24715;SDS011;12822;50.124;8.678;2023-10-19T03:14:08;17.60;;;13.60;;
24715;SDS011;12822;50.124;8.678;2023-10-19T03:16:37;17.75;;;13.00;;
24715;SDS011;12822;50.124;8.678;2023-10-19T03:19:07;18.92;;;13.10;;
24715;SDS011;12822;50.124;8.678;2023-10-19T03:21:33;16.17;;;13.02;;
24715;SDS011;12822;50.124;8.678;2023-10-19T03:24:08;17.58;;;12.75;;
24715;SDS011;12822;50.124;8.678;2023-10-19T03:26:52;16.50;;;12.95;;
24715;SDS011;12822;50.124;8.678;2023-10-19T03:29:19;16.65;;;13.35;;
24715;SDS011;12822;50.124;8.678;2023-10-19T03:31:57;19.45;;;13.82;;
24715;SDS011;12822;50.124;8.678;2023-10-19T03:34:24;16.67;;;13.85;;
24715;SDS011;12822;50.124;8.678;2023-10-19T03:36:50;17.88;;;13.82;;
24715;SDS011;12822;50.124;8.678;2023-10-19T03:39:16;21.73;;;15.00;;
24715;SDS011;12822;50.124;8.678;2023-10-19T03:41:43;16.58;;;14.18;;
24715;SDS011;12822;50.124;8.678;2023-10-19T03:44:10;20.42;;;14.10;;
24715;SDS011;12822;50.124;8.678;2023-10-19T03:46:48;19.38;;;15.07;;
24715;SDS011;12822;50.124;8.678;2023-10-19T03:49:28;18.55;;;14.27;;
24715;SDS011;12822;50.124;8.678;2023-10-19T03:52:04;19.95;;;14.27;;
24715;SDS011;12822;50.124;8.678;2023-10-19T03:54:33;21.38;;;15.02;;
24715;SDS011;12822;50.124;8.678;2023-10-19T03:57:04;21.48;;;14.48;;
24715;SDS011;12822;50.124;8.678;2023-10-19T03:59:37;20.45;;;15.93;;
24715;SDS011;12822;50.124;8.678;2023-10-19T04:02:03;19.90;;;14.57;;
24715;SDS011;12822;50.124;8.678;2023-10-19T04:04:39;19.58;;;14.43;;
24715;SDS011;12822;50.124;8.678;2023-10-19T04:07:08;18.52;;;14.93;;
24715;SDS011;12822;50.124;8.678;2023-10-19T04:12:34;18.27;;;14.98;;
24715;SDS011;12822;50.124;8.678;2023-10-19T04:15:02;22.45;;;15.68;;
24715;SDS011;12822;50.124;8.678;2023-10-19T04:17:47;18.48;;;14.52;;
24715;SDS011;12822;50.124;8.678;2023-10-19T04:20:17;20.38;;;14.30;;
24715;SDS011;12822;50.124;8.678;2023-10-19T04:22:47;19.73;;;15.13;;
24715;SDS011;12822;50.124;8.678;2023-10-19T04:25:13;23.85;;;16.15;;
24715;SDS011;12822;50.124;8.678;2023-10-19T04:27:43;19.73;;;15.23;;
24715;SDS011;12822;50.124;8.678;2023-10-19T04:30:10;21.38;;;15.70;;
24715;SDS011;12822;50.124;8.678;2023-10-19T04:32:43;22.83;;;16.05;;
24715;SDS011;12822;50.124;8.678;2023-10-19T04:35:09;22.50;;;16.27;;
24715;SDS011;12822;50.124;8.678;2023-10-19T04:37:35;22.00;;;16.55;;
24715;SDS011;12822;50.124;8.678;2023-10-19T04:40:11;22.05;;;16.30;;
24715;SDS011;12822;50.124;8.678;2023-10-19T04:42:37;24.73;;;18.02;;
24715;SDS011;12822;50.124;8.678;2023-10-19T04:45:03;21.95;;;16.30;;
24715;SDS011;12822;50.124;8.678;2023-10-19T04:47:30;20.73;;;16.25;;
24715;SDS011;12822;50.124;8.678;2023-10-19T04:49:56;22.05;;;17.17;;
24715;SDS011;12822;50.124;8.678;2023-10-19T04:52:22;20.58;;;16.15;;
24715;SDS011;12822;50.124;8.678;2023-10-19T04:54:48;20.40;;;15.50;;
24715;SDS011;12822;50.124;8.678;2023-10-19T04:57:14;25.10;;;18.20;;
24715;SDS011;12822;50.124;8.678;2023-10-19T04:59:40;20.35;;;16.90;;
24715;SDS011;12822;50.124;8.678;2023-10-19T05:02:10;24.23;;;17.33;;
24715;SDS011;12822;50.124;8.678;2023-10-19T05:04:36;27.35;;;19.10;;
24715;SDS011;12822;50.124;8.678;2023-10-19T05:07:05;29.98;;;19.30;;
24715;SDS011;12822;50.124;8.678;2023-10-19T05:09:31;21.88;;;16.67;;
24715;SDS011;12822;50.124;8.678;2023-10-19T05:11:57;23.25;;;16.75;;
24715;SDS011;12822;50.124;8.678;2023-10-19T05:14:23;26.58;;;17.33;;
24715;SDS011;12822;50.124;8.678;2023-10-19T05:16:49;35.92;;;24.00;;
24715;SDS011;12822;50.124;8.678;2023-10-19T05:19:15;29.92;;;19.75;;
24715;SDS011;12822;50.124;8.678;2023-10-19T05:21:41;29.25;;;19.90;;
24715;SDS011;12822;50.124;8.678;2023-10-19T05:24:08;34.13;;;22.83;;
24715;SDS011;12822;50.124;8.678;2023-10-19T05:26:34;41.70;;;22.85;;
24715;SDS011;12822;50.124;8.678;2023-10-19T05:29:00;38.75;;;23.58;;
24715;SDS011;12822;50.124;8.678;2023-10-19T05:31:26;39.90;;;23.40;;
24715;SDS011;12822;50.124;8.678;2023-10-19T05:33:53;38.75;;;27.55;;
24715;SDS011;12822;50.124;8.678;2023-10-19T05:36:19;45.33;;;26.85;;
24715;SDS011;12822;50.124;8.678;2023-10-19T05:38:45;38.78;;;25.08;;
24715;SDS011;12822;50.124;8.678;2023-10-19T05:41:11;35.72;;;25.63;;
24715;SDS011;12822;50.124;8.678;2023-10-19T05:43:40;41.95;;;27.73;;
24715;SDS011;12822;50.124;8.678;2023-10-19T05:46:07;38.60;;;24.58;;
24715;SDS011;12822;50.124;8.678;2023-10-19T05:48:33;41.38;;;27.05;;
24715;SDS011;12822;50.124;8.678;2023-10-19T05:50:59;45.33;;;30.15;;
24715;SDS011;12822;50.124;8.678;2023-10-19T05:53:25;46.70;;;32.63;;
24715;SDS011;12822;50.124;8.678;2023-10-19T05:55:51;50.63;;;33.30;;
24715;SDS011;12822;50.124;8.678;2023-10-19T05:58:17;47.88;;;31.75;;
24715;SDS011;12822;50.124;8.678;2023-10-19T06:00:45;40.63;;;26.38;;
24715;SDS011;12822;50.124;8.678;2023-10-19T06:03:11;39.90;;;27.10;;
24715;SDS011;12822;50.124;8.678;2023-10-19T06:05:38;42.67;;;28.73;;
24715;SDS011;12822;50.124;8.678;2023-10-19T06:08:04;37.33;;;25.70;;
24715;SDS011;12822;50.124;8.678;2023-10-19T06:10:30;42.65;;;27.98;;
24715;SDS011;12822;50.124;8.678;2023-10-19T06:12:57;43.45;;;27.30;;
24715;SDS011;12822;50.124;8.678;2023-10-19T06:15:23;43.45;;;26.98;;
24715;SDS011;12822;50.124;8.678;2023-10-19T06:17:50;47.85;;;28.40;;
24715;SDS011;12822;50.124;8.678;2023-10-19T06:20:16;47.22;;;28.02;;
24715;SDS011;12822;50.124;8.678;2023-10-19T06:22:49;40.92;;;27.40;;
24715;SDS011;12822;50.124;8.678;2023-10-19T06:25:16;40.47;;;26.67;;
24715;SDS011;12822;50.124;8.678;2023-10-19T06:27:42;40.70;;;26.13;;
24715;SDS011;12822;50.124;8.678;2023-10-19T06:30:09;42.03;;;26.15;;
24715;SDS011;12822;50.124;8.678;2023-10-19T06:32:35;44.05;;;25.10;;
24715;SDS011;12822;50.124;8.678;2023-10-19T06:35:02;39.38;;;25.48;;
24715;SDS011;12822;50.124;8.678;2023-10-19T06:37:28;52.40;;;27.02;;
24715;SDS011;12822;50.124;8.678;2023-10-19T06:39:54;47.75;;;27.88;;
24715;SDS011;12822;50.124;8.678;2023-10-19T06:42:20;45.88;;;28.17;;
24715;SDS011;12822;50.124;8.678;2023-10-19T06:44:46;54.53;;;30.10;;
24715;SDS011;12822;50.124;8.678;2023-10-19T06:47:15;53.13;;;28.98;;
24715;SDS011;12822;50.124;8.678;2023-10-19T06:49:41;50.00;;;29.77;;
24715;SDS011;12822;50.124;8.678;2023-10-19T06:52:07;56.10;;;29.98;;
24715;SDS011;12822;50.124;8.678;2023-10-19T06:54:36;60.30;;;32.90;;
24715;SDS011;12822;50.124;8.678;2023-10-19T06:57:03;64.47;;;34.58;;
24715;SDS011;12822;50.124;8.678;2023-10-19T06:59:29;59.63;;;33.85;;
24715;SDS011;12822;50.124;8.678;2023-10-19T07:01:55;60.13;;;32.92;;
24715;SDS011;12822;50.124;8.678;2023-10-19T07:04:20;63.10;;;34.33;;
24715;SDS011;12822;50.124;8.678;2023-10-19T07:06:46;67.07;;;34.60;;
24715;SDS011;12822;50.124;8.678;2023-10-19T07:09:13;67.18;;;34.92;;
24715;SDS011;12822;50.124;8.678;2023-10-19T07:11:40;75.68;;;37.00;;
24715;SDS011;12822;50.124;8.678;2023-10-19T07:14:09;70.22;;;35.80;;
24715;SDS011;12822;50.124;8.678;2023-10-19T07:16:35;72.68;;;34.92;;
24715;SDS011;12822;50.124;8.678;2023-10-19T07:19:03;69.82;;;33.78;;
24715;SDS011;12822;50.124;8.678;2023-10-19T07:21:30;76.78;;;34.45;;
24715;SDS011;12822;50.124;8.678;2023-10-19T07:24:00;70.32;;;35.55;;
24715;SDS011;12822;50.124;8.678;2023-10-19T07:26:30;73.50;;;36.53;;
24715;SDS011;12822;50.124;8.678;2023-10-19T07:28:58;78.80;;;38.17;;
24715;SDS011;12822;50.124;8.678;2023-10-19T07:31:24;64.75;;;35.25;;
24715;SDS011;12822;50.124;8.678;2023-10-19T07:33:52;71.30;;;34.60;;
24715;SDS011;12822;50.124;8.678;2023-10-19T07:36:20;67.55;;;33.83;;
24715;SDS011;12822;50.124;8.678;2023-10-19T07:38:48;64.85;;;35.22;;
24715;SDS011;12822;50.124;8.678;2023-10-19T07:41:16;75.55;;;38.75;;
24715;SDS011;12822;50.124;8.678;2023-10-19T07:43:42;69.95;;;35.67;;
24715;SDS011;12822;50.124;8.678;2023-10-19T07:46:09;74.10;;;38.70;;
24715;SDS011;12822;50.124;8.678;2023-10-19T07:48:36;66.63;;;36.72;;
24715;SDS011;12822;50.124;8.678;2023-10-19T07:51:03;64.28;;;35.22;;
24715;SDS011;12822;50.124;8.678;2023-10-19T07:53:29;67.47;;;37.17;;
24715;SDS011;12822;50.124;8.678;2023-10-19T07:55:55;66.03;;;35.17;;
24715;SDS011;12822;50.124;8.678;2023-10-19T07:58:22;59.60;;;35.65;;
24715;SDS011;12822;50.124;8.678;2023-10-19T08:00:48;66.68;;;35.35;;
24715;SDS011;12822;50.124;8.678;2023-10-19T08:03:14;58.58;;;34.80;;
24715;SDS011;12822;50.124;8.678;2023-10-19T08:05:41;62.53;;;34.83;;
24715;SDS011;12822;50.124;8.678;2023-10-19T08:08:07;65.53;;;35.58;;
24715;SDS011;12822;50.124;8.678;2023-10-19T08:10:34;67.30;;;34.85;;
24715;SDS011;12822;50.124;8.678;2023-10-19T08:13:00;61.00;;;35.33;;
24715;SDS011;12822;50.124;8.678;2023-10-19T08:15:26;62.45;;;35.42;;
24715;SDS011;12822;50.124;8.678;2023-10-19T08:17:55;65.00;;;34.97;;
24715;SDS011;12822;50.124;8.678;2023-10-19T08:20:21;64.88;;;35.17;;
24715;SDS011;12822;50.124;8.678;2023-10-19T08:22:57;65.07;;;35.40;;
24715;SDS011;12822;50.124;8.678;2023-10-19T08:25:23;77.68;;;37.97;;
24715;SDS011;12822;50.124;8.678;2023-10-19T08:27:52;89.85;;;38.03;;
24715;SDS011;12822;50.124;8.678;2023-10-19T08:30:21;79.45;;;39.42;;
24715;SDS011;12822;50.124;8.678;2023-10-19T08:32:48;79.60;;;39.13;;
24715;SDS011;12822;50.124;8.678;2023-10-19T08:35:21;85.30;;;39.95;;
24715;SDS011;12822;50.124;8.678;2023-10-19T08:37:53;78.30;;;38.92;;
24715;SDS011;12822;50.124;8.678;2023-10-19T08:40:20;76.68;;;38.35;;
24715;SDS011;12822;50.124;8.678;2023-10-19T08:42:48;82.35;;;40.15;;
24715;SDS011;12822;50.124;8.678;2023-10-19T08:45:15;76.38;;;40.60;;
24715;SDS011;12822;50.124;8.678;2023-10-19T08:47:43;78.55;;;40.30;;
24715;SDS011;12822;50.124;8.678;2023-10-19T08:50:13;78.32;;;38.97;;
24715;SDS011;12822;50.124;8.678;2023-10-19T08:52:40;88.28;;;41.90;;
24715;SDS011;12822;50.124;8.678;2023-10-19T08:55:07;91.93;;;43.53;;
24715;SDS011;12822;50.124;8.678;2023-10-19T08:57:35;84.72;;;41.30;;
24715;SDS011;12822;50.124;8.678;2023-10-19T09:00:03;89.90;;;41.90;;
24715;SDS011;12822;50.124;8.678;2023-10-19T09:02:31;100.57;;;44.03;;
24715;SDS011;12822;50.124;8.678;2023-10-19T09:04:58;87.68;;;42.97;;
24715;SDS011;12822;50.124;8.678;2023-10-19T09:07:25;83.43;;;41.08;;
24715;SDS011;12822;50.124;8.678;2023-10-19T09:09:56;76.97;;;40.38;;
24715;SDS011;12822;50.124;8.678;2023-10-19T09:12:22;88.88;;;40.72;;
24715;SDS011;12822;50.124;8.678;2023-10-19T09:14:48;91.68;;;43.28;;
24715;SDS011;12822;50.124;8.678;2023-10-19T09:17:15;84.68;;;39.78;;
24715;SDS011;12822;50.124;8.678;2023-10-19T09:19:43;87.20;;;41.20;;
24715;SDS011;12822;50.124;8.678;2023-10-19T09:22:12;89.82;;;42.75;;
24715;SDS011;12822;50.124;8.678;2023-10-19T09:24:50;77.22;;;40.58;;
24715;SDS011;12822;50.124;8.678;2023-10-19T09:27:21;82.10;;;40.78;;
24715;SDS011;12822;50.124;8.678;2023-10-19T09:29:48;78.68;;;39.13;;
24715;SDS011;12822;50.124;8.678;2023-10-19T09:32:16;76.30;;;40.83;;
24715;SDS011;12822;50.124;8.678;2023-10-19T09:34:43;74.20;;;39.40;;
24715;SDS011;12822;50.124;8.678;2023-10-19T09:37:10;73.03;;;38.55;;
24715;SDS011;12822;50.124;8.678;2023-10-19T09:39:38;71.90;;;40.50;;
24715;SDS011;12822;50.124;8.678;2023-10-19T09:42:08;75.63;;;38.42;;
24715;SDS011;12822;50.124;8.678;2023-10-19T09:44:45;72.70;;;38.63;;
24715;SDS011;12822;50.124;8.678;2023-10-19T09:47:12;70.65;;;38.47;;
24715;SDS011;12822;50.124;8.678;2023-10-19T09:49:39;67.45;;;39.22;;
24715;SDS011;12822;50.124;8.678;2023-10-19T09:52:06;66.07;;;37.75;;
24715;SDS011;12822;50.124;8.678;2023-10-19T09:57:13;69.63;;;37.63;;
24715;SDS011;12822;50.124;8.678;2023-10-19T09:59:42;62.13;;;36.50;;
24715;SDS011;12822;50.124;8.678;2023-10-19T10:02:10;59.28;;;34.08;;
24715;SDS011;12822;50.124;8.678;2023-10-19T10:04:40;45.88;;;30.98;;
24715;SDS011;12822;50.124;8.678;2023-10-19T10:07:07;58.83;;;32.35;;
24715;SDS011;12822;50.124;8.678;2023-10-19T10:09:35;52.58;;;31.10;;
24715;SDS011;12822;50.124;8.678;2023-10-19T10:12:25;48.65;;;30.25;;
24715;SDS011;12822;50.124;8.678;2023-10-19T10:17:22;48.00;;;29.52;;
24715;SDS011;12822;50.124;8.678;2023-10-19T10:19:49;45.10;;;29.75;;
24715;SDS011;12822;50.124;8.678;2023-10-19T10:22:16;47.38;;;30.25;;
24715;SDS011;12822;50.124;8.678;2023-10-19T10:24:47;52.05;;;32.65;;
24715;SDS011;12822;50.124;8.678;2023-10-19T10:27:17;49.63;;;32.15;;
24715;SDS011;12822;50.124;8.678;2023-10-19T10:29:56;50.28;;;32.53;;
24715;SDS011;12822;50.124;8.678;2023-10-19T10:35:08;51.50;;;33.65;;
24715;SDS011;12822;50.124;8.678;2023-10-19T10:37:37;51.70;;;32.88;;
24715;SDS011;12822;50.124;8.678;2023-10-19T10:40:05;47.10;;;32.92;;
24715;SDS011;12822;50.124;8.678;2023-10-19T10:42:31;52.13;;;32.42;;
24715;SDS011;12822;50.124;8.678;2023-10-19T10:44:59;47.42;;;32.15;;
24715;SDS011;12822;50.124;8.678;2023-10-19T10:47:27;50.28;;;32.10;;
24715;SDS011;12822;50.124;8.678;2023-10-19T10:50:00;69.25;;;37.70;;
24715;SDS011;12822;50.124;8.678;2023-10-19T10:54:54;71.85;;;40.38;;
24715;SDS011;12822;50.124;8.678;2023-10-19T10:57:20;76.63;;;41.25;;
24715;SDS011;12822;50.124;8.678;2023-10-19T10:59:46;80.38;;;43.70;;
24715;SDS011;12822;50.124;8.678;2023-10-19T11:02:18;78.95;;;42.38;;
24715;SDS011;12822;50.124;8.678;2023-10-19T11:04:46;79.13;;;44.10;;
24715;SDS011;12822;50.124;8.678;2023-10-19T11:07:19;79.32;;;41.65;;
24715;SDS011;12822;50.124;8.678;2023-10-19T11:09:46;81.47;;;41.53;;
24715;SDS011;12822;50.124;8.678;2023-10-19T11:12:13;84.53;;;41.30;;
24715;SDS011;12822;50.124;8.678;2023-10-19T11:14:53;73.22;;;39.90;;
24715;SDS011;12822;50.124;8.678;2023-10-19T11:17:19;76.00;;;40.67;;
24715;SDS011;12822;50.124;8.678;2023-10-19T11:19:48;69.20;;;38.65;;
24715;SDS011;12822;50.124;8.678;2023-10-19T11:22:14;68.82;;;38.40;;
24715;SDS011;12822;50.124;8.678;2023-10-19T11:24:40;65.53;;;38.85;;
24715;SDS011;12822;50.124;8.678;2023-10-19T11:27:06;69.15;;;38.08;;
24715;SDS011;12822;50.124;8.678;2023-10-19T11:29:34;70.10;;;39.13;;
24715;SDS011;12822;50.124;8.678;2023-10-19T11:32:00;70.72;;;40.22;;
24715;SDS011;12822;50.124;8.678;2023-10-19T11:34:27;71.95;;;38.85;;
24715;SDS011;12822;50.124;8.678;2023-10-19T11:36:54;68.18;;;38.30;;
24715;SDS011;12822;50.124;8.678;2023-10-19T11:39:22;69.85;;;40.28;;
24715;SDS011;12822;50.124;8.678;2023-10-19T11:41:51;71.75;;;40.03;;
24715;SDS011;12822;50.124;8.678;2023-10-19T11:44:18;71.57;;;39.88;;
24715;SDS011;12822;50.124;8.678;2023-10-19T11:46:44;68.75;;;41.40;;
24715;SDS011;12822;50.124;8.678;2023-10-19T11:49:10;71.75;;;40.88;;
24715;SDS011;12822;50.124;8.678;2023-10-19T11:51:37;65.75;;;39.72;;
24715;SDS011;12822;50.124;8.678;2023-10-19T11:54:06;68.30;;;39.03;;
24715;SDS011;12822;50.124;8.678;2023-10-19T11:56:32;76.07;;;40.53;;
24715;SDS011;12822;50.124;8.678;2023-10-19T11:58:59;69.68;;;40.80;;
24715;SDS011;12822;50.124;8.678;2023-10-19T12:01:27;65.63;;;39.42;;
24715;SDS011;12822;50.124;8.678;2023-10-19T12:03:54;73.72;;;39.83;;
24715;SDS011;12822;50.124;8.678;2023-10-19T12:06:20;66.30;;;40.15;;
24715;SDS011;12822;50.124;8.678;2023-10-19T12:08:48;70.80;;;41.03;;
24715;SDS011;12822;50.124;8.678;2023-10-19T12:11:14;68.03;;;38.42;;
24715;SDS011;12822;50.124;8.678;2023-10-19T12:13:44;74.00;;;40.47;;
24715;SDS011;12822;50.124;8.678;2023-10-19T12:16:11;67.40;;;41.05;;
24715;SDS011;12822;50.124;8.678;2023-10-19T12:18:38;63.83;;;39.13;;
24715;SDS011;12822;50.124;8.678;2023-10-19T12:21:04;66.05;;;38.33;;
24715;SDS011;12822;50.124;8.678;2023-10-19T12:23:33;64.65;;;38.58;;
24715;SDS011;12822;50.124;8.678;2023-10-19T12:26:00;73.82;;;37.78;;
24715;SDS011;12822;50.124;8.678;2023-10-19T12:28:29;63.10;;;38.53;;
24715;SDS011;12822;50.124;8.678;2023-10-19T12:30:55;63.92;;;39.63;;
24715;SDS011;12822;50.124;8.678;2023-10-19T12:33:21;69.93;;;39.63;;
24715;SDS011;12822;50.124;8.678;2023-10-19T12:35:47;70.30;;;39.65;;
24715;SDS011;12822;50.124;8.678;2023-10-19T12:38:16;67.13;;;40.47;;
24715;SDS011;12822;50.124;8.678;2023-10-19T12:40:43;62.33;;;39.22;;
24715;SDS011;12822;50.124;8.678;2023-10-19T12:43:09;71.35;;;40.15;;
24715;SDS011;12822;50.124;8.678;2023-10-19T12:45:35;68.85;;;39.88;;
24715;SDS011;12822;50.124;8.678;2023-10-19T12:48:05;70.68;;;40.55;;
24715;SDS011;12822;50.124;8.678;2023-10-19T12:50:31;70.47;;;40.95;;
24715;SDS011;12822;50.124;8.678;2023-10-19T12:52:57;71.00;;;42.90;;
24715;SDS011;12822;50.124;8.678;2023-10-19T12:55:25;70.00;;;39.80;;
24715;SDS011;12822;50.124;8.678;2023-10-19T12:57:55;72.72;;;40.25;;
24715;SDS011;12822;50.124;8.678;2023-10-19T13:00:22;65.95;;;39.55;;
24715;SDS011;12822;50.124;8.678;2023-10-19T13:02:54;66.65;;;40.63;;
24715;SDS011;12822;50.124;8.678;2023-10-19T13:05:25;68.90;;;39.67;;
24715;SDS011;12822;50.124;8.678;2023-10-19T13:07:52;64.22;;;38.40;;
24715;SDS011;12822;50.124;8.678;2023-10-19T13:10:18;69.80;;;39.97;;
24715;SDS011;12822;50.124;8.678;2023-10-19T13:12:44;72.13;;;41.40;;
24715;SDS011;12822;50.124;8.678;2023-10-19T13:15:11;71.80;;;41.72;;
24715;SDS011;12822;50.124;8.678;2023-10-19T13:17:40;71.63;;;40.63;;
24715;SDS011;12822;50.124;8.678;2023-10-19T13:20:08;71.82;;;41.00;;
24715;SDS011;12822;50.124;8.678;2023-10-19T13:22:44;70.70;;;40.85;;
24715;SDS011;12822;50.124;8.678;2023-10-19T13:25:11;74.13;;;39.55;;
24715;SDS011;12822;50.124;8.678;2023-10-19T13:27:44;66.10;;;40.20;;
24715;SDS011;12822;50.124;8.678;2023-10-19T13:30:11;66.07;;;40.78;;
24715;SDS011;12822;50.124;8.678;2023-10-19T13:32:39;72.85;;;41.67;;
24715;SDS011;12822;50.124;8.678;2023-10-19T13:35:06;69.47;;;42.35;;
24715;SDS011;12822;50.124;8.678;2023-10-19T13:37:32;68.28;;;41.60;;
24715;SDS011;12822;50.124;8.678;2023-10-19T13:39:58;78.13;;;40.78;;
24715;SDS011;12822;50.124;8.678;2023-10-19T13:42:25;73.07;;;41.00;;
24715;SDS011;12822;50.124;8.678;2023-10-19T13:44:50;71.43;;;42.55;;
24715;SDS011;12822;50.124;8.678;2023-10-19T13:47:16;69.50;;;39.95;;
24715;SDS011;12822;50.124;8.678;2023-10-19T13:49:42;71.82;;;41.10;;
24715;SDS011;12822;50.124;8.678;2023-10-19T13:52:08;68.25;;;42.30;;
24715;SDS011;12822;50.124;8.678;2023-10-19T13:54:35;72.05;;;41.38;;
24715;SDS011;12822;50.124;8.678;2023-10-19T13:57:01;75.03;;;42.60;;
24715;SDS011;12822;50.124;8.678;2023-10-19T13:59:28;83.03;;;41.95;;
24715;SDS011;12822;50.124;8.678;2023-10-19T14:01:54;75.15;;;41.63;;
24715;SDS011;12822;50.124;8.678;2023-10-19T14:04:20;69.75;;;42.03;;
24715;SDS011;12822;50.124;8.678;2023-10-19T14:06:46;79.25;;;43.80;;
24715;SDS011;12822;50.124;8.678;2023-10-19T14:09:14;78.30;;;43.60;;
24715;SDS011;12822;50.124;8.678;2023-10-19T14:11:42;70.95;;;41.72;;
24715;SDS011;12822;50.124;8.678;2023-10-19T14:14:09;75.95;;;42.53;;
24715;SDS011;12822;50.124;8.678;2023-10-19T14:16:36;73.32;;;43.30;;
24715;SDS011;12822;50.124;8.678;2023-10-19T14:19:02;75.70;;;44.13;;
24715;SDS011;12822;50.124;8.678;2023-10-19T14:21:29;78.28;;;43.53;;
24715;SDS011;12822;50.124;8.678;2023-10-19T14:23:56;83.47;;;43.67;;
24715;SDS011;12822;50.124;8.678;2023-10-19T14:26:22;71.13;;;42.17;;
24715;SDS011;12822;50.124;8.678;2023-10-19T14:28:48;82.32;;;45.15;;
24715;SDS011;12822;50.124;8.678;2023-10-19T14:31:15;79.78;;;43.97;;
24715;SDS011;12822;50.124;8.678;2023-10-19T14:33:41;78.40;;;43.08;;
24715;SDS011;12822;50.124;8.678;2023-10-19T14:36:08;88.40;;;46.63;;
24715;SDS011;12822;50.124;8.678;2023-10-19T14:38:34;79.68;;;43.45;;
24715;SDS011;12822;50.124;8.678;2023-10-19T14:41:01;72.75;;;42.42;;
24715;SDS011;12822;50.124;8.678;2023-10-19T14:43:27;81.40;;;45.40;;
24715;SDS011;12822;50.124;8.678;2023-10-19T14:45:57;81.43;;;44.92;;
24715;SDS011;12822;50.124;8.678;2023-10-19T14:48:23;84.35;;;47.25;;